Time;durP1;ratioP1;P1;durP2;ratioP2;P2;SDS_P1;SDS_P2;PMS_P1;PMS_P2;Temp;Humidity;BMP_temperature;BMP_pressure;BME280_temperature;BME280_humidity;BME280_pressure;Samples;Min_cycle;Max_cycle;Signal;HPM_P1;HPM_P2
2022/07/26 00:01:49;;;;;;;7.63;6.47;;;;;;;18.96;100.00;94013.91;5048032;28;20201;-65
2022/07/26 00:04:34;;;;;;;8.13;7.33;;;;;;;18.98;100.00;93994.13;5046017;28;20233;-66
2022/07/26 00:07:18;;;;;;;8.17;6.30;;;;;;;18.96;100.00;93988.34;5051288;28;20591;-65
2022/07/26 00:10:06;;;;;;;7.90;6.47;;;;;;;18.99;100.00;93987.06;5050641;28;20244;-59
2022/07/26 00:12:50;;;;;;;9.10;6.63;;;;;;;18.85;100.00;93975.13;5041826;28;20209;-65
2022/07/26 00:15:34;;;;;;;7.57;5.60;;;;;;;18.89;100.00;93963.91;5039608;28;20200;-65
2022/07/26 00:18:19;;;;;;;12.27;7.03;;;;;;;18.89;100.00;93963.19;5049274;28;20190;-66
2022/07/26 00:21:03;;;;;;;7.97;5.37;;;;;;;18.59;100.00;93942.78;5050391;28;20573;-66
2022/07/26 00:23:47;;;;;;;5.23;4.70;;;;;;;18.63;100.00;93931.63;5053167;28;20227;-66
2022/07/26 00:26:32;;;;;;;4.80;3.60;;;;;;;18.43;100.00;93936.41;5046628;28;20241;-65
2022/07/26 00:29:16;;;;;;;7.43;4.73;;;;;;;18.57;100.00;93928.53;5049662;28;20213;-65
2022/07/26 00:32:00;;;;;;;5.73;4.07;;;;;;;18.46;100.00;93920.94;5052394;28;20578;-65
2022/07/26 00:34:44;;;;;;;6.67;4.83;;;;;;;18.74;100.00;93924.97;5044356;28;20571;-65
2022/07/26 00:37:28;;;;;;;5.83;4.57;;;;;;;18.69;100.00;93923.38;5048454;28;20209;-65
2022/07/26 00:40:12;;;;;;;5.90;3.83;;;;;;;18.46;100.00;93923.75;5052779;28;20206;-66
2022/07/26 00:42:56;;;;;;;5.97;3.80;;;;;;;18.48;100.00;93913.25;5051938;28;20590;-65
2022/07/26 00:45:41;;;;;;;4.10;3.53;;;;;;;18.43;100.00;93913.72;5044459;28;20580;-66
2022/07/26 00:48:25;;;;;;;7.77;3.40;;;;;;;18.56;100.00;93910.03;5043195;28;20276;-65
2022/07/26 00:51:09;;;;;;;5.47;3.97;;;;;;;18.44;100.00;93906.69;5050560;28;20578;-65
2022/07/26 00:53:53;;;;;;;6.10;4.27;;;;;;;18.61;100.00;93900.31;5048802;28;20201;-66
2022/07/26 00:56:38;;;;;;;6.90;3.90;;;;;;;18.66;100.00;93906.88;5050268;28;20194;-66
2022/07/26 00:59:22;;;;;;;4.80;4.37;;;;;;;18.52;100.00;93921.19;5045244;28;20722;-65
2022/07/26 01:02:08;;;;;;;7.93;3.57;;;;;;;18.55;100.00;93909.31;5050277;28;20241;-66
2022/07/26 01:04:52;;;;;;;3.83;3.43;;;;;;;18.54;100.00;93912.75;5048041;28;20726;-66
2022/07/26 01:07:37;;;;;;;4.13;3.73;;;;;;;18.32;100.00;93914.69;5046060;28;20202;-66
2022/07/26 01:10:21;;;;;;;4.07;3.67;;;;;;;18.40;100.00;93909.31;5052118;28;20193;-64
2022/07/26 01:13:05;;;;;;;4.83;3.70;;;;;;;18.48;100.00;93906.84;5057173;28;20263;-66
2022/07/26 01:15:49;;;;;;;6.13;4.20;;;;;;;18.42;100.00;93906.59;5048862;28;20201;-65
2022/07/26 01:18:33;;;;;;;5.20;3.40;;;;;;;18.32;100.00;93909.75;5051828;28;20253;-64
2022/07/26 01:21:17;;;;;;;4.23;3.83;;;;;;;18.43;100.00;93908.06;5047966;28;20271;-66
2022/07/26 01:24:01;;;;;;;4.40;4.00;;;;;;;18.15;100.00;93901.91;5051214;28;20243;-66
2022/07/26 01:26:45;;;;;;;6.57;4.57;;;;;;;18.26;100.00;93911.59;5057234;28;20217;-66
2022/07/26 01:29:30;;;;;;;6.93;4.10;;;;;;;18.24;100.00;93915.06;5045440;28;20244;-65
2022/07/26 01:32:14;;;;;;;4.87;3.93;;;;;;;18.32;100.00;93909.75;5047869;28;20289;-66
2022/07/26 01:34:58;;;;;;;7.03;4.37;;;;;;;18.34;100.00;93920.41;5048500;28;20201;-66
2022/07/26 01:37:42;;;;;;;6.17;3.63;;;;;;;18.28;100.00;93906.72;5051478;28;20213;-65
2022/07/26 01:40:26;;;;;;;5.40;3.53;;;;;;;18.10;100.00;93906.66;5040058;28;20674;-66
2022/07/26 01:43:10;;;;;;;5.67;3.87;;;;;;;18.12;100.00;93903.94;5052322;28;20257;-65
2022/07/26 01:45:54;;;;;;;8.87;3.90;;;;;;;18.39;100.00;93913.56;5046649;28;20225;-65
2022/07/26 01:48:39;;;;;;;6.47;4.40;;;;;;;18.59;100.00;93911.56;5048206;28;20213;-66
2022/07/26 01:51:23;;;;;;;7.87;4.53;;;;;;;18.61;100.00;93911.66;5044004;28;20198;-66
2022/07/26 01:54:07;;;;;;;4.57;3.70;;;;;;;18.54;100.00;93912.75;5049440;28;20591;-66
2022/07/26 01:56:51;;;;;;;5.00;3.97;;;;;;;18.63;100.00;93913.88;5057948;28;20622;-65
2022/07/26 01:59:35;;;;;;;4.97;3.60;;;;;;;18.73;100.00;93929.19;5043575;28;20275;-66
2022/07/26 02:02:18;;;;;;;4.57;3.60;;;;;;;18.46;100.00;93930.19;5054305;28;20197;-66
2022/07/26 02:05:04;;;;;;;5.07;4.17;;;;;;;18.56;100.00;93932.75;5050725;28;20222;-65
2022/07/26 02:07:48;;;;;;;6.17;5.30;;;;;;;18.55;100.00;93920.66;5051236;28;20205;-65
2022/07/26 02:13:37;;;;;;;5.03;4.50;;;;;;;18.65;100.00;93922.44;5043134;28;20681;-66
2022/07/26 02:16:21;;;;;;;5.93;4.23;;;;;;;18.63;100.00;93925.94;5048877;28;20225;-65
2022/07/26 02:19:05;;;;;;;5.90;4.63;;;;;;;18.74;100.00;93921.41;5054635;28;20248;-66
2022/07/26 02:21:49;;;;;;;6.37;5.50;;;;;;;18.87;100.00;93920.53;5049644;28;20204;-65
2022/07/26 02:24:33;;;;;;;10.37;5.10;;;;;;;18.80;100.00;93928.06;5047827;28;20247;-65
2022/07/26 02:27:19;;;;;;;6.67;4.50;;;;;;;18.86;100.00;93919.81;5059065;28;20355;-67
2022/07/26 02:30:04;;;;;;;4.40;3.90;;;;;;;19.04;100.00;93928.31;5046495;28;20209;-66
2022/07/26 02:32:48;;;;;;;7.87;4.40;;;;;;;18.97;100.00;93930.19;5050648;28;20216;-65
2022/07/26 02:35:32;;;;;;;6.10;4.50;;;;;;;19.12;100.00;93930.75;5043882;28;20248;-65
2022/07/26 02:38:17;;;;;;;8.63;4.60;;;;;;;19.01;100.00;93929.59;5049523;28;20221;-66
2022/07/26 02:41:01;;;;;;;7.60;4.50;;;;;;;19.17;100.00;93929.53;5050826;28;20716;-66
2022/07/26 02:43:45;;;;;;;4.70;4.30;;;;;;;19.10;100.00;93925.72;5044757;28;20206;-65
2022/07/26 02:46:29;;;;;;;6.23;4.43;;;;;;;19.08;100.00;93939.09;5050356;28;20201;-65
2022/07/26 02:49:14;;;;;;;8.67;4.43;;;;;;;19.16;100.00;93928.06;5057365;28;20681;-65
2022/07/26 02:51:57;;;;;;;6.27;4.47;;;;;;;19.05;100.00;93926.22;5051606;28;20569;-64
2022/07/26 02:54:41;;;;;;;5.20;4.70;;;;;;;19.10;100.00;93924.97;5054288;28;20196;-66
2022/07/26 02:57:26;;;;;;;10.30;4.90;;;;;;;18.94;100.00;93922.97;5050639;28;20244;-65
2022/07/26 03:00:11;;;;;;;8.57;5.63;;;;;;;18.89;100.00;93918.50;5056704;28;20274;-66
2022/07/26 03:02:56;;;;;;;7.17;5.63;;;;;;;19.20;100.00;93911.16;5050507;28;20222;-65
2022/07/26 03:05:40;;;;;;;7.33;5.73;;;;;;;19.07;100.00;93909.25;5054226;28;20591;-66
2022/07/26 03:08:25;;;;;;;9.60;5.17;;;;;;;18.95;100.00;93927.25;5043434;28;20197;-65
2022/07/26 03:11:09;;;;;;;8.63;5.67;;;;;;;19.04;100.00;93933.25;5048328;28;20275;-65
2022/07/26 03:13:53;;;;;;;7.70;5.30;;;;;;;19.14;100.00;93933.66;5050648;28;20220;-65
2022/07/26 03:16:37;;;;;;;8.47;5.17;;;;;;;19.15;100.00;93926.59;5054061;28;20202;-65
2022/07/26 03:19:21;;;;;;;6.93;5.67;;;;;;;19.17;100.00;93938.06;5046536;28;20299;-64
2022/07/26 03:22:05;;;;;;;8.33;5.97;;;;;;;19.17;100.00;93943.72;5053629;28;20205;-66
2022/07/26 03:24:49;;;;;;;9.20;5.60;;;;;;;19.35;100.00;93944.44;5045348;28;20306;-65
2022/07/26 03:27:33;;;;;;;6.97;5.43;;;;;;;19.26;100.00;93936.97;5043812;28;20709;-65
2022/07/26 03:30:18;;;;;;;7.23;5.57;;;;;;;19.26;100.00;93931.28;5052500;28;20245;-65
2022/07/26 03:33:01;;;;;;;8.80;6.07;;;;;;;19.38;100.00;93920.41;5053763;28;20682;-65
2022/07/26 03:35:45;;;;;;;7.33;5.37;;;;;;;19.23;100.00;93918.41;5052262;28;20236;-65
2022/07/26 03:38:30;;;;;;;8.70;5.73;;;;;;;19.42;100.00;93919.84;5052801;28;20198;-61
2022/07/26 03:41:14;;;;;;;7.97;5.63;;;;;;;19.33;100.00;93921.63;5060674;28;20243;-65
2022/07/26 03:43:58;;;;;;;7.57;4.60;;;;;;;19.30;100.00;93920.09;5050445;28;20583;-65
2022/07/26 03:46:42;;;;;;;9.90;4.63;;;;;;;19.30;100.00;93920.09;5053968;28;20213;-66
2022/07/26 03:49:26;;;;;;;4.67;4.07;;;;;;;19.30;100.00;93928.63;5056945;28;20209;-65
2022/07/26 03:52:10;;;;;;;6.57;4.70;;;;;;;19.21;100.00;93930.41;5047923;28;20632;-65
2022/07/26 03:54:54;;;;;;;4.87;4.23;;;;;;;19.14;100.00;93930.81;5050175;28;20308;-66
2022/07/26 03:57:38;;;;;;;5.10;4.47;;;;;;;19.19;100.00;93921.09;5064826;28;21014;-65
2022/07/26 04:00:22;;;;;;;6.33;4.77;;;;;;;19.16;100.00;93923.13;5044358;28;20566;-65
2022/07/26 04:03:06;;;;;;;13.87;4.83;;;;;;;19.16;100.00;93916.69;5043673;28;20241;-61
2022/07/26 04:05:50;;;;;;;8.63;5.03;;;;;;;19.14;100.00;93919.44;5052567;28;20222;-65
2022/07/26 04:08:34;;;;;;;10.73;5.30;;;;;;;19.11;100.00;93932.13;5047718;28;20197;-66
2022/07/26 04:11:18;;;;;;;5.13;4.63;;;;;;;19.18;100.00;93942.34;5048831;28;20244;-62
2022/07/26 04:14:02;;;;;;;7.63;4.90;;;;;;;19.17;100.00;93940.88;5053135;28;20289;-65
2022/07/26 04:16:47;;;;;;;5.90;5.00;;;;;;;19.26;100.00;93949.06;5048403;28;20621;-65
2022/07/26 04:19:30;;;;;;;7.77;5.37;;;;;;;19.22;100.00;93951.03;5053263;28;20220;-60
2022/07/26 04:22:14;;;;;;;6.33;5.20;;;;;;;19.19;100.00;93949.50;5045500;28;20577;-65
2022/07/26 04:24:58;;;;;;;4.67;4.23;;;;;;;19.29;99.78;93958.41;5045237;28;20270;-60
2022/07/26 04:27:42;;;;;;;7.73;5.13;;;;;;;19.22;99.49;93953.88;5053368;28;20205;-64
2022/07/26 04:30:27;;;;;;;11.40;5.70;;;;;;;19.12;100.00;93956.31;5054875;28;20192;-60
2022/07/26 04:33:11;;;;;;;10.00;5.33;;;;;;;19.09;100.00;93961.16;5048343;28;20286;-65
2022/07/26 04:35:54;;;;;;;5.80;5.03;;;;;;;19.11;100.00;93954.84;5050955;28;20197;-60
2022/07/26 04:38:38;;;;;;;8.43;4.20;;;;;;;19.31;98.35;93961.34;5045260;28;20223;-64
2022/07/26 04:41:22;;;;;;;6.37;5.10;;;;;;;18.97;100.00;93964.25;5048885;28;20235;-64
2022/07/26 04:44:06;;;;;;;5.13;4.50;;;;;;;19.25;98.49;93956.16;5048359;28;20268;-64
2022/07/26 04:46:50;;;;;;;8.37;3.60;;;;;;;19.28;99.45;93959.78;5052906;28;20303;-64
2022/07/26 04:49:34;;;;;;;5.20;4.63;;;;;;;19.08;99.89;93965.38;5056603;28;20619;-64
2022/07/26 04:52:18;;;;;;;5.37;4.10;;;;;;;19.17;99.34;93964.34;5052416;28;20201;-64
2022/07/26 04:55:04;;;;;;;5.30;4.13;;;;;;;19.25;99.02;93958.25;5045082;28;20233;-59
2022/07/26 04:57:49;;;;;;;6.47;4.60;;;;;;;19.26;98.32;93942.66;5052280;28;20236;-64
2022/07/26 05:00:34;;;;;;;5.63;4.33;;;;;;;19.36;97.64;93946.66;5043628;28;20212;-59
2022/07/26 05:03:18;;;;;;;6.47;4.67;;;;;;;19.28;97.47;93952.00;5051929;28;20271;-64
2022/07/26 05:06:01;;;;;;;4.03;3.40;;;;;;;19.38;97.95;93943.13;5051078;28;20245;-61
2022/07/26 05:08:45;;;;;;;5.63;4.03;;;;;;;19.27;97.91;93955.47;5048434;28;20206;-62
2022/07/26 05:11:29;;;;;;;4.83;4.00;;;;;;;19.21;99.23;93963.75;5045299;28;20213;-61
2022/07/26 05:14:13;;;;;;;4.20;3.83;;;;;;;19.28;99.72;93968.31;5047043;28;20625;-64
2022/07/26 05:16:57;;;;;;;6.30;4.23;;;;;;;19.20;100.00;93962.31;5049386;28;20217;-65
2022/07/26 05:19:41;;;;;;;6.00;3.83;;;;;;;19.16;99.18;93962.88;5051880;28;20594;-61
2022/07/26 05:22:25;;;;;;;5.63;4.13;;;;;;;18.94;100.00;93962.72;5044196;28;20588;-65
2022/07/26 05:25:09;;;;;;;4.63;4.20;;;;;;;18.97;99.19;93961.41;5057378;28;20220;-60
2022/07/26 05:27:53;;;;;;;7.17;4.20;;;;;;;18.59;100.00;93954.88;5063873;28;20682;-65
2022/07/26 05:30:37;;;;;;;4.43;4.03;;;;;;;18.60;100.00;93961.28;5042922;28;20270;-65
2022/07/26 05:33:22;;;;;;;3.90;3.47;;;;;;;18.69;100.00;93954.59;5048223;28;20197;-65
2022/07/26 05:36:06;;;;;;;4.20;3.80;;;;;;;18.82;100.00;93959.41;5051835;28;20201;-60
2022/07/26 05:38:50;;;;;;;4.73;3.73;;;;;;;18.70;100.00;93958.88;5046526;28;20256;-65
2022/07/26 05:41:34;;;;;;;5.63;3.73;;;;;;;18.59;100.00;93959.81;5051389;28;20201;-64
2022/07/26 05:44:18;;;;;;;4.77;3.60;;;;;;;18.62;100.00;93964.22;5048585;28;20204;-60
2022/07/26 05:47:02;;;;;;;4.23;3.10;;;;;;;18.80;100.00;93967.81;5050917;28;20585;-60
2022/07/26 05:49:47;;;;;;;4.03;3.63;;;;;;;18.68;100.00;93973.00;5051033;28;20205;-65
2022/07/26 05:52:31;;;;;;;4.80;4.27;;;;;;;18.66;100.00;93970.06;5037166;28;20298;-65
2022/07/26 05:55:15;;;;;;;6.63;4.33;;;;;;;18.59;100.00;93971.19;5050954;28;20435;-64
2022/07/26 05:57:59;;;;;;;5.33;4.07;;;;;;;18.66;100.00;93970.06;5048577;28;20573;-65
2022/07/26 06:00:43;;;;;;;4.30;3.70;;;;;;;18.92;100.00;93971.16;5049478;28;20200;-65
2022/07/26 06:03:28;;;;;;;4.30;3.77;;;;;;;18.81;100.00;93971.38;5044168;28;20583;-64
2022/07/26 06:06:13;;;;;;;6.20;3.60;;;;;;;18.87;100.00;93971.63;5050310;28;20276;-65
2022/07/26 06:08:57;;;;;;;3.60;3.30;;;;;;;18.89;100.00;93963.91;5054251;28;20257;-65
2022/07/26 06:11:41;;;;;;;7.37;3.53;;;;;;;19.12;100.00;93956.31;5045839;28;20205;-65
2022/07/26 06:14:25;;;;;;;5.17;3.17;;;;;;;18.91;99.55;93955.50;5040374;28;20854;-65
2022/07/26 06:17:09;;;;;;;3.50;3.20;;;;;;;18.73;100.00;93963.25;5048231;28;20279;-65
2022/07/26 06:19:53;;;;;;;3.83;3.10;;;;;;;18.83;100.00;93955.16;5044128;28;20209;-65
2022/07/26 06:22:37;;;;;;;4.37;3.27;;;;;;;18.80;100.00;93950.78;5044623;28;20205;-65
2022/07/26 06:25:21;;;;;;;7.50;3.50;;;;;;;18.96;97.73;93962.78;5047293;28;20244;-65
2022/07/26 06:28:07;;;;;;;4.03;2.90;;;;;;;18.85;97.37;93958.09;5050955;28;20600;-65
2022/07/26 06:30:51;;;;;;;5.83;3.37;;;;;;;18.99;97.70;93964.34;5045522;28;20229;-65
2022/07/26 06:33:35;;;;;;;8.17;2.87;;;;;;;18.85;97.98;93963.03;5048546;28;20204;-64
2022/07/26 06:36:19;;;;;;;5.60;3.40;;;;;;;18.70;96.92;93964.53;5061751;28;20251;-63
2022/07/26 06:39:03;;;;;;;4.17;3.33;;;;;;;18.64;97.00;93972.81;5042947;28;20700;-63
2022/07/26 06:41:47;;;;;;;6.37;3.20;;;;;;;18.80;97.32;93973.50;5050684;28;20279;-64
2022/07/26 06:44:33;;;;;;;3.43;3.10;;;;;;;18.77;96.40;93979.72;5039233;28;20687;-65
2022/07/26 06:47:17;;;;;;;3.27;2.83;;;;;;;18.94;95.37;93988.28;5052496;28;20284;-65
2022/07/26 06:50:02;;;;;;;4.30;3.50;;;;;;;18.98;93.95;93991.28;5063396;28;20625;-65
2022/07/26 06:52:46;;;;;;;4.20;3.57;;;;;;;18.95;94.94;93995.41;5053146;28;20197;-65
2022/07/26 06:55:30;;;;;;;3.77;3.40;;;;;;;18.88;96.43;93990.88;5054259;28;20201;-64
2022/07/26 06:58:14;;;;;;;4.03;3.57;;;;;;;18.77;97.34;93991.81;5054087;28;20197;-64
2022/07/26 07:00:58;;;;;;;4.37;3.77;;;;;;;18.96;97.34;94001.81;5052964;28;20228;-65
2022/07/26 07:03:42;;;;;;;3.87;3.50;;;;;;;18.94;97.39;93996.81;5048586;28;20221;-65
2022/07/26 07:06:26;;;;;;;5.37;3.77;;;;;;;18.94;98.46;93993.22;5049788;28;20218;-64
2022/07/26 07:09:11;;;;;;;6.03;4.50;;;;;;;19.29;95.88;93998.19;5052944;28;20193;-61
2022/07/26 07:11:55;;;;;;;8.63;3.97;;;;;;;18.97;96.24;93997.59;5052259;28;20205;-63
2022/07/26 07:14:39;;;;;;;6.97;4.50;;;;;;;18.88;97.10;93999.41;5043802;28;20728;-59
2022/07/26 07:17:23;;;;;;;6.53;4.20;;;;;;;18.80;98.71;94004.72;5039495;28;20197;-65
2022/07/26 07:20:07;;;;;;;4.80;3.90;;;;;;;18.48;100.00;94006.88;5054201;28;20200;-63
2022/07/26 07:22:51;;;;;;;4.80;4.00;;;;;;;18.61;100.00;94018.78;5054167;28;20564;-64
2022/07/26 07:25:35;;;;;;;4.77;3.77;;;;;;;18.89;98.60;94020.72;5048877;28;20217;-63
2022/07/26 07:28:19;;;;;;;4.43;4.03;;;;;;;18.77;96.28;94014.53;5054164;28;20197;-60
2022/07/26 07:31:04;;;;;;;4.20;3.40;;;;;;;18.67;96.07;94028.28;5053085;28;20579;-64
2022/07/26 07:33:47;;;;;;;3.33;3.00;;;;;;;18.56;96.56;94029.25;5052701;28;20316;-65
2022/07/26 07:36:31;;;;;;;6.40;3.40;;;;;;;18.57;96.59;94030.69;5053228;28;20248;-60
2022/07/26 07:39:16;;;;;;;6.73;3.87;;;;;;;18.61;97.64;94030.88;5053249;28;20375;-62
2022/07/26 07:42:00;;;;;;;4.03;3.40;;;;;;;18.40;98.64;94031.31;5050169;28;20204;-61
2022/07/26 07:44:44;;;;;;;6.27;4.23;;;;;;;18.10;100.00;94037.13;5048426;28;20224;-63
2022/07/26 07:47:32;;;;;;;7.83;4.17;;;;;;;17.83;100.00;94040.13;5053948;28;20562;-63
2022/07/26 07:50:16;;;;;;;6.30;3.97;;;;;;;17.91;100.00;94042.59;5053252;28;20202;-62
2022/07/26 07:53:00;;;;;;;4.07;3.63;;;;;;;17.82;100.00;94035.84;5047694;28;20202;-63
2022/07/26 07:55:44;;;;;;;5.37;3.63;;;;;;;17.95;100.00;94032.19;5049247;28;20245;-63
2022/07/26 07:58:28;;;;;;;3.70;2.80;;;;;;;17.80;100.00;94032.91;5052326;28;20225;-62
2022/07/26 08:01:12;;;;;;;4.07;2.73;;;;;;;17.63;100.00;94036.34;5050876;28;20284;-63
2022/07/26 08:03:56;;;;;;;17.10;7.27;;;;;;;17.56;100.00;94034.56;5053132;28;20248;-62
2022/07/26 08:06:41;;;;;;;34.80;16.27;;;;;;;17.59;100.00;94036.16;5052569;28;20251;-63
2022/07/26 08:09:25;;;;;;;2.37;2.17;;;;;;;18.09;100.00;94035.66;5051063;28;20202;-62
2022/07/26 08:12:10;;;;;;;5.63;2.80;;;;;;;17.73;100.00;94034.72;5051085;28;20734;-65
2022/07/26 08:14:54;;;;;;;6.13;2.47;;;;;;;17.87;100.00;94031.06;5046103;28;20201;-65
2022/07/26 08:17:38;;;;;;;7.63;2.87;;;;;;;18.12;100.00;94025.88;5047230;28;20386;-65
2022/07/26 08:20:22;;;;;;;6.93;2.63;;;;;;;18.21;100.00;94023.41;5048477;28;20261;-65
2022/07/26 08:23:06;;;;;;;2.70;2.00;;;;;;;18.38;100.00;94020.63;5052904;28;20201;-64
2022/07/26 08:25:50;;;;;;;4.17;2.20;;;;;;;18.74;100.00;94012.97;5048981;28;20752;-65
2022/07/26 08:28:34;;;;;;;3.37;2.00;;;;;;;18.64;98.60;94023.88;5048609;28;20198;-65
2022/07/26 08:31:19;;;;;;;2.73;2.10;;;;;;;18.56;100.00;94023.56;5048967;28;20269;-65
2022/07/26 08:34:03;;;;;;;2.03;1.83;;;;;;;18.63;97.77;94022.44;5050508;28;20217;-65
2022/07/26 08:36:47;;;;;;;2.27;1.60;;;;;;;18.79;97.46;94023.13;5052816;28;20275;-65
2022/07/26 08:39:31;;;;;;;2.00;1.80;;;;;;;18.92;98.05;94030.78;5052227;28;20236;-64
2022/07/26 08:42:17;;;;;;;3.70;1.83;;;;;;;18.73;98.75;94037.06;5051731;28;20264;-65
2022/07/26 08:45:02;;;;;;;4.47;1.97;;;;;;;18.65;99.88;94038.81;5047638;28;20349;-65
2022/07/26 08:47:46;;;;;;;2.07;1.70;;;;;;;18.79;98.33;94045.84;5051916;28;20679;-65
2022/07/26 08:50:32;;;;;;;2.13;1.67;;;;;;;19.23;97.97;94035.63;5050968;28;20209;-65
2022/07/26 08:53:16;;;;;;;1.80;1.70;;;;;;;19.45;91.48;94038.59;5045601;28;20282;-65
2022/07/26 08:56:00;;;;;;;2.67;1.40;;;;;;;19.43;89.57;94052.03;5046616;28;20785;-64
2022/07/26 08:58:44;;;;;;;3.97;2.13;;;;;;;19.75;89.89;94056.91;5052586;28;20713;-65
2022/07/26 09:01:28;;;;;;;3.90;1.80;;;;;;;19.38;89.03;94051.09;5046575;28;20198;-65
2022/07/26 09:04:23;;;;;;;3.73;1.83;;;;;;;19.59;90.14;94047.75;5051544;28;20575;-60
2022/07/26 09:07:09;;;;;;;2.87;1.60;;;;;;;20.23;85.56;94050.88;5052624;28;20584;-65
2022/07/26 09:10:06;;;;;;;2.03;1.93;;;;;;;19.96;85.92;94043.47;5049965;28;20214;-65
2022/07/26 09:12:55;;;;;;;3.50;2.00;;;;;;;19.72;86.79;94055.38;5046822;28;20330;-65
2022/07/26 09:15:39;;;;;;;3.57;1.80;;;;;;;19.66;87.85;94052.28;5040833;28;20359;-61
2022/07/26 09:18:25;;;;;;;2.93;1.83;;;;;;;19.34;90.82;94062.31;5046448;28;20229;-66
2022/07/26 09:21:30;;;;;;;3.23;2.20;;;;;;;19.77;89.33;94053.41;5051628;28;20618;-61
2022/07/26 09:24:45;;;;;;;2.83;2.10;;;;;;;19.95;87.20;94047.69;5050771;28;20358;-66
2022/07/26 09:27:35;;;;;;;4.37;2.60;;;;;;;20.34;84.97;94042.09;5045293;28;20198;-65
2022/07/26 09:30:20;;;;;;;3.42;2.30;;;;;;;20.71;83.78;94049.09;5048929;28;20320;-65
2022/07/26 09:33:06;;;;;;;4.53;2.30;;;;;;;20.97;82.91;94039.38;5049632;28;20256;-66
2022/07/26 09:36:08;;;;;;;3.63;1.80;;;;;;;21.22;79.62;94038.09;5052187;28;20636;-65
2022/07/26 09:38:57;;;;;;;3.63;1.60;;;;;;;21.11;78.94;94038.41;5048050;28;20213;-65
2022/07/26 09:41:41;;;;;;;3.75;1.73;;;;;;;21.07;77.91;94041.09;5049065;28;20233;-61
2022/07/26 09:44:25;;;;;;;3.58;1.67;;;;;;;21.14;77.67;94042.75;5037931;28;20202;-66
2022/07/26 09:47:53;;;;;;;2.55;2.10;;;;;;;20.45;80.00;94043.91;5051725;28;20386;-66
2022/07/26 09:50:49;;;;;;;2.38;2.00;;;;;;;20.47;79.62;94043.28;5050425;28;20225;-65
2022/07/26 09:53:42;;;;;;;2.88;2.10;;;;;;;20.89;80.61;94038.34;5044228;28;20281;-65
2022/07/26 09:56:42;;;;;;;2.20;1.90;;;;;;;21.51;77.96;94044.72;5045440;28;20249;-65
2022/07/26 09:59:27;;;;;;;2.38;2.03;;;;;;;20.95;77.28;94038.56;5049259;28;20209;-65
2022/07/26 10:02:13;;;;;;;2.97;2.05;;;;;;;21.35;78.05;94054.19;5049385;28;20677;-65
2022/07/26 10:04:57;;;;;;;2.55;1.73;;;;;;;21.29;74.96;94059.69;5047846;28;20643;-66
2022/07/26 10:07:41;;;;;;;2.70;2.10;;;;;;;21.99;74.24;94057.69;5046141;28;20281;-65
2022/07/26 10:10:27;;;;;;;3.20;2.05;;;;;;;22.17;76.79;94066.81;5044755;28;20232;-65
2022/07/26 10:13:12;;;;;;;3.47;2.35;;;;;;;22.07;75.84;94057.94;5050394;28;20286;-65
2022/07/26 10:15:56;;;;;;;2.83;2.15;;;;;;;22.37;75.46;94054.53;5040590;28;20685;-65
2022/07/26 10:18:42;;;;;;;2.08;1.98;;;;;;;22.22;74.07;94052.66;5051037;28;20201;-63
2022/07/26 10:21:31;;;;;;;2.40;2.20;;;;;;;21.99;75.50;94051.25;5050550;28;20205;-66
2022/07/26 10:24:28;;;;;;;3.45;2.25;;;;;;;22.25;74.74;94052.03;5046914;28;20206;-63
2022/07/26 10:27:36;;;;;;;3.40;2.05;;;;;;;21.70;77.20;94044.63;5049685;28;20251;-65
2022/07/26 10:30:26;;;;;;;2.05;1.88;;;;;;;21.79;75.90;94051.31;5049890;28;20264;-66
2022/07/26 10:33:14;;;;;;;5.55;2.33;;;;;;;22.21;75.19;94048.34;5047093;28;20682;-66
2022/07/26 10:35:58;;;;;;;2.92;2.40;;;;;;;22.56;74.46;94047.94;5050424;28;20214;-65
2022/07/26 10:39:16;;;;;;;4.82;2.35;;;;;;;22.22;75.71;94044.09;5050827;28;20240;-65
2022/07/26 10:42:05;;;;;;;3.60;2.22;;;;;;;21.89;76.29;94053.78;5050277;28;20205;-65
2022/07/26 10:44:49;;;;;;;2.67;2.15;;;;;;;22.01;77.35;94049.19;5041736;28;20698;-66
2022/07/26 10:47:33;;;;;;;2.28;1.90;;;;;;;22.52;75.10;94047.84;5043385;28;20193;-65
2022/07/26 10:50:31;;;;;;;2.42;2.22;;;;;;;22.34;76.07;94055.88;5049859;28;20467;-65
2022/07/26 10:53:25;;;;;;;3.58;2.47;;;;;;;22.85;74.56;94050.22;5048030;28;20232;-61
2022/07/26 10:56:09;;;;;;;5.78;2.28;;;;;;;22.95;73.06;94055.50;5044161;28;20233;-65
2022/07/26 10:58:53;;;;;;;2.97;2.05;;;;;;;22.88;73.32;94054.59;5050971;28;20725;-65
2022/07/26 11:01:39;;;;;;;3.03;2.08;;;;;;;22.45;73.90;94054.78;5038275;28;20248;-61
2022/07/26 11:04:24;;;;;;;1.70;1.60;;;;;;;22.56;74.47;94053.66;5045991;28;20722;-65
2022/07/26 11:07:08;;;;;;;3.00;2.00;;;;;;;23.17;71.50;94052.50;5046601;28;20307;-66
2022/07/26 11:09:56;;;;;;;2.42;2.22;;;;;;;22.85;73.46;94055.19;5050183;28;20321;-65
2022/07/26 11:12:40;;;;;;;3.85;2.35;;;;;;;22.66;70.10;94051.06;5035986;28;20687;-65
2022/07/26 11:15:24;;;;;;;2.75;2.20;;;;;;;23.05;69.98;94046.44;5042607;28;20213;-65
2022/07/26 11:18:13;;;;;;;5.28;2.65;;;;;;;22.88;69.72;94048.16;5051017;28;20233;-65
2022/07/26 11:21:10;;;;;;;3.10;2.13;;;;;;;23.14;70.60;94048.88;5047075;28;20198;-64
2022/07/26 11:24:00;;;;;;;5.32;2.65;;;;;;;22.71;71.43;94046.97;5050531;28;20267;-63
2022/07/26 11:26:45;;;;;;;3.70;2.20;;;;;;;23.02;70.29;94044.97;5045857;28;20705;-62
2022/07/26 11:29:33;;;;;;;2.72;2.45;;;;;;;23.42;67.73;94048.84;5046521;28;20233;-60
2022/07/26 11:32:23;;;;;;;3.90;2.90;;;;;;;23.26;69.89;94045.59;5049121;28;20202;-60
2022/07/26 11:35:08;;;;;;;5.47;3.30;;;;;;;22.69;70.48;94043.31;5049549;28;20249;-61
2022/07/26 11:37:55;;;;;;;3.95;2.72;;;;;;;23.82;69.00;94036.97;5051456;28;20225;-65
2022/07/26 11:40:46;;;;;;;3.38;3.03;;;;;;;23.79;68.04;94042.66;5053727;28;20209;-65
2022/07/26 11:43:38;;;;;;;4.45;3.50;;;;;;;22.69;71.75;94038.31;5052954;28;20233;-63
2022/07/26 11:46:32;;;;;;;3.58;3.28;;;;;;;23.14;68.69;94039.56;5048792;28;20224;-64
2022/07/26 11:49:17;;;;;;;4.88;3.53;;;;;;;23.85;68.38;94044.19;5053501;28;20332;-65
2022/07/26 11:52:02;;;;;;;3.78;3.47;;;;;;;23.97;66.62;94035.88;5047043;28;20343;-65
2022/07/26 11:54:51;;;;;;;3.65;3.25;;;;;;;24.38;65.07;94041.13;5050230;28;20214;-65
2022/07/26 11:57:36;;;;;;;5.82;3.35;;;;;;;24.43;66.36;94036.94;5051983;28;20201;-61
2022/07/26 12:00:22;;;;;;;4.07;3.28;;;;;;;23.89;66.63;94035.69;5051004;28;20239;-64
2022/07/26 12:03:06;;;;;;;3.65;3.00;;;;;;;23.56;67.84;94031.34;5051172;28;20643;-63
2022/07/26 12:06:02;;;;;;;3.38;2.85;;;;;;;24.13;65.52;94034.09;5052914;28;20659;-64
2022/07/26 12:08:50;;;;;;;3.55;2.40;;;;;;;23.25;65.06;94033.44;5047630;28;20246;-61
2022/07/26 12:11:40;;;;;;;3.03;2.28;;;;;;;22.72;66.73;94031.28;5043165;28;20562;-61
2022/07/26 12:14:33;;;;;;;2.25;2.00;;;;;;;22.84;64.82;94025.91;5041203;28;20228;-64
2022/07/26 12:17:17;;;;;;;5.68;2.60;;;;;;;22.05;68.35;94026.47;5051210;28;20197;-63
2022/07/26 12:20:15;;;;;;;2.78;2.15;;;;;;;22.18;69.38;94030.44;5052616;28;20746;-64
2022/07/26 12:23:04;;;;;;;3.53;2.38;;;;;;;22.25;70.07;94019.91;5045410;28;20208;-65
2022/07/26 12:25:48;;;;;;;3.30;1.80;;;;;;;21.88;70.30;94024.50;5048596;28;20635;-65
2022/07/26 12:28:39;;;;;;;3.03;1.98;;;;;;;21.77;71.55;94023.47;5052430;28;20570;-64
2022/07/26 12:31:28;;;;;;;6.35;2.45;;;;;;;21.54;73.88;94020.59;5049235;28;20225;-65
2022/07/26 12:34:19;;;;;;;6.07;2.30;;;;;;;21.28;75.01;94021.19;5052419;28;20260;-62
2022/07/26 12:37:09;;;;;;;3.58;2.30;;;;;;;21.24;74.79;94023.91;5050671;28;20194;-65
2022/07/26 12:40:14;;;;;;;3.50;3.10;;;;;;;21.22;76.36;94026.69;5049287;28;20288;-65
2022/07/26 12:43:00;;;;;;;3.58;3.28;;;;;;;21.41;76.03;94018.75;5048956;28;20355;-65
2022/07/26 12:45:44;;;;;;;6.05;3.08;;;;;;;21.21;77.11;94019.53;5047900;28;20761;-65
2022/07/26 12:48:28;;;;;;;3.38;2.63;;;;;;;21.12;77.69;94020.63;5042910;28;20288;-65
2022/07/26 12:51:12;;;;;;;3.28;2.97;;;;;;;21.18;76.99;94018.00;5051693;28;20213;-65
2022/07/26 12:53:56;;;;;;;4.60;2.97;;;;;;;21.08;78.21;94011.94;5048995;28;20245;-65
2022/07/26 12:56:40;;;;;;;3.15;2.55;;;;;;;21.24;75.58;94018.19;5048944;28;20197;-65
2022/07/26 12:59:24;;;;;;;4.20;2.67;;;;;;;21.35;74.43;94017.13;5047952;28;20274;-65